createdAt,value
2017-08-21T15:22:45.000Z,23.53
2017-08-21T15:32:45.000Z,23.56
2017-08-21T15:42:45.000Z,23.48
2017-08-21T15:52:45.000Z,23.53
2017-08-21T16:02:45.000Z,23.53
2017-08-21T16:12:45.000Z,23.44
2017-08-21T16:22:45.000Z,23.42
2017-08-21T16:32:45.000Z,23.47
2017-08-21T16:42:45.000Z,23.55
2017-08-21T16:52:45.000Z,23.6
2017-08-21T17:02:45.000Z,23.81
2017-08-21T17:12:45.000Z,23.76
2017-08-21T17:22:45.000Z,23.69
2017-08-21T17:32:45.000Z,23.53
2017-08-21T17:42:45.000Z,23.43
2017-08-21T17:52:45.000Z,23.32
2017-08-21T18:02:45.000Z,23.28
2017-08-21T18:12:45.000Z,23.32
2017-08-21T18:22:46.000Z,23.28
2017-08-21T18:32:45.000Z,23.32
2017-08-21T18:42:45.000Z,23.31
2017-08-21T18:52:45.000Z,23.36
2017-08-21T19:02:45.000Z,23.32
2017-08-21T19:12:45.000Z,23.2
2017-08-21T19:22:45.000Z,23.1
2017-08-21T19:32:45.000Z,23.02
2017-08-21T19:42:45.000Z,22.97
2017-08-21T19:52:45.000Z,22.95
2017-08-21T20:02:45.000Z,22.88
2017-08-21T20:12:45.000Z,22.84
2017-08-21T20:22:45.000Z,22.8
2017-08-21T20:32:45.000Z,22.74
2017-08-21T20:42:46.000Z,22.71
2017-08-21T20:52:45.000Z,22.7
2017-08-21T21:02:47.000Z,22.64
2017-08-21T21:12:46.000Z,22.59
2017-08-21T21:22:46.000Z,22.73
2017-08-21T21:32:46.000Z,22.83
2017-08-21T21:42:46.000Z,22.83
2017-08-21T21:52:46.000Z,22.8
2017-08-21T22:02:46.000Z,22.77
2017-08-21T22:12:46.000Z,22.74
2017-08-21T22:22:46.000Z,22.7
2017-08-21T22:32:46.000Z,22.64
2017-08-21T22:42:46.000Z,22.58
2017-08-21T22:52:46.000Z,22.57
2017-08-21T23:02:46.000Z,22.54
2017-08-21T23:12:46.000Z,22.5
2017-08-21T23:22:46.000Z,22.45
2017-08-21T23:32:46.000Z,22.41
2017-08-21T23:42:46.000Z,22.36
2017-08-21T23:52:49.000Z,22.32
